createdAt,value
2023-09-08T00:00:28.002Z,8.27
2023-09-08T00:05:43.450Z,7.85
2023-09-08T00:08:10.621Z,8.23
2023-09-08T00:10:38.440Z,7.78
2023-09-08T00:13:05.923Z,8.52
2023-09-08T00:15:36.272Z,8.15
2023-09-08T00:18:03.991Z,7.53
2023-09-08T00:20:32.160Z,8.68
2023-09-08T00:22:59.379Z,8.93
2023-09-08T00:25:26.997Z,8.25
2023-09-08T00:27:54.186Z,8.73
2023-09-08T00:30:21.761Z,8.50
2023-09-08T00:32:49.221Z,8.10
2023-09-08T00:35:16.811Z,9.20
2023-09-08T00:37:44.287Z,8.45
2023-09-08T00:40:11.958Z,9.40
2023-09-08T00:42:39.409Z,8.05
2023-09-08T00:45:07.361Z,8.70
2023-09-08T00:47:36.553Z,8.43
2023-09-08T00:50:08.117Z,9.80
2023-09-08T00:52:35.551Z,8.63
2023-09-08T00:55:03.149Z,9.02
2023-09-08T00:57:30.436Z,8.43
2023-09-08T00:59:59.376Z,8.75
2023-09-08T01:02:27.115Z,9.70
2023-09-08T01:04:54.839Z,9.15
2023-09-08T01:07:22.621Z,8.68
2023-09-08T01:09:50.991Z,9.10
2023-09-08T01:12:18.427Z,9.55
2023-09-08T01:14:46.172Z,8.85
2023-09-08T01:17:13.630Z,8.63
2023-09-08T01:19:44.199Z,9.05
2023-09-08T01:22:23.851Z,9.10
2023-09-08T01:25:13.408Z,9.68
2023-09-08T01:27:46.603Z,10.05
2023-09-08T01:30:16.202Z,9.63
2023-09-08T01:32:45.447Z,9.15
2023-09-08T01:35:13.932Z,9.40
2023-09-08T01:37:43.195Z,10.57
2023-09-08T01:40:11.813Z,9.63
2023-09-08T01:42:40.052Z,10.35
2023-09-08T01:45:09.236Z,9.77
2023-09-08T01:47:36.655Z,8.98
2023-09-08T01:50:04.424Z,9.23
2023-09-08T01:52:31.737Z,9.98
2023-09-08T01:54:59.286Z,9.68
2023-09-08T01:57:26.638Z,10.65
2023-09-08T01:59:54.138Z,10.50
2023-09-08T02:02:21.495Z,9.77
2023-09-08T02:04:49.601Z,10.25
2023-09-08T02:07:16.824Z,10.05
2023-09-08T02:09:44.896Z,10.25
2023-09-08T02:12:12.022Z,10.60
2023-09-08T02:14:39.524Z,9.73
2023-09-08T02:17:08.752Z,9.93
2023-09-08T02:19:36.244Z,10.95
2023-09-08T02:22:04.052Z,10.50
2023-09-08T02:24:31.826Z,10.32
2023-09-08T02:26:59.194Z,10.32
2023-09-08T02:29:26.918Z,9.98
2023-09-08T02:31:54.139Z,9.40
2023-09-08T02:34:21.686Z,9.43
2023-09-08T02:36:49.207Z,9.40
2023-09-08T02:39:18.150Z,9.85
2023-09-08T02:41:45.454Z,10.32
2023-09-08T02:44:13.961Z,9.02
2023-09-08T02:46:41.341Z,9.50
2023-09-08T02:49:09.541Z,10.25
2023-09-08T02:51:36.916Z,11.05
2023-09-08T02:54:04.477Z,9.38
2023-09-08T02:56:31.739Z,9.63
2023-09-08T02:58:59.214Z,10.60
2023-09-08T03:01:26.553Z,9.77
2023-09-08T03:03:54.325Z,8.80
2023-09-08T03:06:22.498Z,8.93
2023-09-08T03:08:51.000Z,10.60
2023-09-08T03:11:18.257Z,8.77
2023-09-08T03:13:45.746Z,9.80
2023-09-08T03:16:13.104Z,9.75
2023-09-08T03:18:40.742Z,8.98
2023-09-08T03:21:11.158Z,9.65
2023-09-08T03:23:40.772Z,9.30
2023-09-08T03:26:08.911Z,9.15
2023-09-08T03:28:37.251Z,9.82
2023-09-08T03:31:05.182Z,9.85
2023-09-08T03:33:35.858Z,9.23
2023-09-08T03:36:04.730Z,9.95
2023-09-08T03:38:32.497Z,10.60
2023-09-08T03:40:59.953Z,10.32
2023-09-08T03:43:27.958Z,10.45
2023-09-08T03:45:57.660Z,9.88
2023-09-08T03:48:25.344Z,9.05
2023-09-08T03:50:52.606Z,10.18
2023-09-08T03:53:20.253Z,10.27
2023-09-08T03:55:47.586Z,10.27
2023-09-08T03:58:17.069Z,10.13
2023-09-08T04:00:44.518Z,10.40
2023-09-08T04:03:12.800Z,10.30
2023-09-08T04:05:40.142Z,10.10
2023-09-08T04:08:07.658Z,10.93
2023-09-08T04:10:35.069Z,10.25
2023-09-08T04:13:02.520Z,10.98
2023-09-08T04:15:29.978Z,11.60
2023-09-08T04:17:58.781Z,10.85
2023-09-08T04:20:26.861Z,9.95
2023-09-08T04:22:55.157Z,10.13
2023-09-08T04:25:22.952Z,10.85
2023-09-08T04:27:50.645Z,9.70
2023-09-08T04:30:19.187Z,10.63
2023-09-08T04:32:46.888Z,10.20
2023-09-08T04:35:14.661Z,10.02
2023-09-08T04:37:42.140Z,11.27
2023-09-08T04:40:09.930Z,10.45
2023-09-08T04:42:38.306Z,10.32
2023-09-08T04:45:07.153Z,10.73
2023-09-08T04:47:35.948Z,9.48
2023-09-08T04:50:03.362Z,9.13
2023-09-08T04:52:30.958Z,10.82
2023-09-08T04:54:58.776Z,9.55
2023-09-08T04:57:27.063Z,9.43
2023-09-08T04:59:58.376Z,10.07
2023-09-08T05:02:26.133Z,10.70
2023-09-08T05:04:53.742Z,10.07
2023-09-08T05:07:22.307Z,10.60
2023-09-08T05:09:50.165Z,10.95
2023-09-08T05:12:18.242Z,10.82
2023-09-08T05:14:46.294Z,9.82
2023-09-08T05:17:13.886Z,10.10
2023-09-08T05:19:41.288Z,10.25
2023-09-08T05:22:08.724Z,9.75
2023-09-08T05:24:36.431Z,10.20
2023-09-08T05:27:04.808Z,9.98
2023-09-08T05:29:32.348Z,9.73
2023-09-08T05:32:00.182Z,9.50
2023-09-08T05:34:29.181Z,10.70
2023-09-08T05:36:56.843Z,10.45
2023-09-08T05:39:24.352Z,10.77
2023-09-08T05:41:51.891Z,10.10
2023-09-08T05:44:20.027Z,9.30
2023-09-08T05:46:47.561Z,9.10
2023-09-08T05:49:15.456Z,9.23
2023-09-08T05:51:43.706Z,9.05
2023-09-08T05:54:11.543Z,9.32
2023-09-08T05:56:40.764Z,9.13
2023-09-08T05:59:08.551Z,8.18
2023-09-08T06:01:37.430Z,8.50
2023-09-08T06:04:07.762Z,8.32
2023-09-08T06:06:35.738Z,8.30
2023-09-08T06:09:03.170Z,10.20
2023-09-08T06:11:31.230Z,7.32
2023-09-08T06:14:00.673Z,7.78
2023-09-08T06:16:32.618Z,8.50
2023-09-08T06:19:00.748Z,8.85
2023-09-08T06:21:28.618Z,7.55
2023-09-08T06:23:56.229Z,8.98
2023-09-08T06:26:24.444Z,8.00
2023-09-08T06:28:51.970Z,7.05
2023-09-08T06:31:20.400Z,8.15
2023-09-08T06:33:48.534Z,7.82
2023-09-08T06:36:16.639Z,8.05
2023-09-08T06:38:43.882Z,8.63
2023-09-08T06:41:13.256Z,8.25
2023-09-08T06:43:41.495Z,7.03
2023-09-08T06:46:23.208Z,6.43
2023-09-08T06:48:50.569Z,6.60
2023-09-08T06:51:20.446Z,7.03
2023-09-08T06:53:56.824Z,7.10
2023-09-08T06:56:25.919Z,7.43
2023-09-08T06:58:53.796Z,8.05
2023-09-08T07:01:21.785Z,7.57
2023-09-08T07:03:49.422Z,8.18
2023-09-08T07:06:17.910Z,7.93
2023-09-08T07:08:45.267Z,5.03
2023-09-08T07:11:14.644Z,8.33
2023-09-08T07:13:43.093Z,7.28
2023-09-08T07:16:11.344Z,7.47
2023-09-08T07:18:39.318Z,6.35
2023-09-08T07:21:08.743Z,7.60
2023-09-08T07:23:38.203Z,7.75
2023-09-08T07:26:07.738Z,7.70
2023-09-08T07:28:35.674Z,7.25
2023-09-08T07:31:06.811Z,7.85
2023-09-08T07:33:38.179Z,7.43
2023-09-08T07:36:07.133Z,8.35
2023-09-08T07:38:35.852Z,7.18
2023-09-08T07:41:04.682Z,8.48
2023-09-08T07:43:32.712Z,7.88
2023-09-08T07:46:02.226Z,8.88
2023-09-08T07:48:30.854Z,7.97
2023-09-08T07:51:01.219Z,6.43
2023-09-08T07:53:29.110Z,8.35
2023-09-08T07:55:59.607Z,7.55
2023-09-08T07:58:26.876Z,8.63
2023-09-08T08:00:54.331Z,8.80
2023-09-08T08:03:21.614Z,9.05
2023-09-08T08:05:49.346Z,6.80
2023-09-08T08:08:16.967Z,8.45
2023-09-08T08:10:44.780Z,7.15
2023-09-08T08:13:12.027Z,7.53
2023-09-08T08:15:41.774Z,8.13
2023-09-08T08:18:13.336Z,8.75
2023-09-08T08:20:41.200Z,7.90
2023-09-08T08:23:08.971Z,8.73
2023-09-08T08:25:36.418Z,9.38
2023-09-08T08:28:03.968Z,7.78
2023-09-08T08:30:31.608Z,7.88
2023-09-08T08:32:59.036Z,6.47
2023-09-08T08:35:26.520Z,7.88
2023-09-08T08:37:53.751Z,7.88
2023-09-08T08:40:21.458Z,6.82
2023-09-08T08:42:48.782Z,8.02
2023-09-08T08:45:20.370Z,6.63
2023-09-08T08:47:49.231Z,7.18
2023-09-08T08:50:18.338Z,7.20
2023-09-08T08:52:45.885Z,7.70
2023-09-08T08:55:15.738Z,8.25
2023-09-08T08:57:43.419Z,8.05
2023-09-08T09:00:14.120Z,6.32
2023-09-08T09:02:44.230Z,9.02
2023-09-08T09:05:14.336Z,6.60
2023-09-08T09:07:43.440Z,7.53
2023-09-08T09:10:11.921Z,6.70
2023-09-08T09:12:39.529Z,6.20
2023-09-08T09:15:09.317Z,7.50
2023-09-08T09:17:37.437Z,6.50
2023-09-08T09:20:16.522Z,7.55
2023-09-08T09:22:44.556Z,7.65
2023-09-08T09:25:26.417Z,6.85
2023-09-08T09:28:02.251Z,5.72
2023-09-08T09:30:51.050Z,6.25
2023-09-08T09:33:18.822Z,7.32
2023-09-08T09:35:49.434Z,7.50
2023-09-08T09:38:18.043Z,5.72
2023-09-08T09:40:46.720Z,7.10
2023-09-08T09:43:15.459Z,7.90
2023-09-08T09:45:44.058Z,5.25
2023-09-08T09:48:11.986Z,4.85
2023-09-08T09:50:41.462Z,6.47
2023-09-08T09:53:17.073Z,5.60
2023-09-08T09:55:46.846Z,5.18
2023-09-08T09:58:15.763Z,18.10
2023-09-08T10:00:49.409Z,7.28
2023-09-08T10:03:17.821Z,4.95
2023-09-08T10:05:48.110Z,5.10
2023-09-08T10:08:15.510Z,4.30
2023-09-08T10:10:47.307Z,4.45
2023-09-08T10:13:19.160Z,4.90
2023-09-08T10:15:48.111Z,5.95
2023-09-08T10:18:17.839Z,4.35
2023-09-08T10:20:46.061Z,5.65
2023-09-08T10:23:32.810Z,7.40
2023-09-08T10:26:04.792Z,4.10
2023-09-08T10:28:34.983Z,4.10
2023-09-08T10:31:04.306Z,4.05
2023-09-08T10:33:35.587Z,3.83
2023-09-08T10:36:06.604Z,4.57
2023-09-08T10:38:35.784Z,5.93
2023-09-08T10:41:29.271Z,3.78
2023-09-08T10:44:01.658Z,4.38
2023-09-08T10:46:31.715Z,4.03
2023-09-08T10:49:04.856Z,4.80
2023-09-08T10:51:32.594Z,6.97
2023-09-08T10:53:59.760Z,6.47
2023-09-08T10:56:58.230Z,4.78
2023-09-08T10:59:36.584Z,4.30
2023-09-08T11:02:07.257Z,7.80
2023-09-08T11:04:38.502Z,4.07
2023-09-08T11:07:06.175Z,5.18
2023-09-08T11:09:37.657Z,4.45
2023-09-08T11:12:07.022Z,6.55
2023-09-08T11:14:34.255Z,4.00
2023-09-08T11:17:04.708Z,4.18
2023-09-08T11:19:48.542Z,4.70
2023-09-08T11:22:17.529Z,4.25
2023-09-08T11:24:45.733Z,5.10
2023-09-08T11:27:13.849Z,4.57
2023-09-08T11:29:41.705Z,4.63
2023-09-08T11:32:09.764Z,4.68
2023-09-08T11:34:37.431Z,4.20
2023-09-08T11:37:17.180Z,4.22
2023-09-08T11:39:47.958Z,4.30
2023-09-08T11:42:16.987Z,4.25
2023-09-08T11:44:44.217Z,4.63
2023-09-08T11:47:12.555Z,4.00
2023-09-08T11:49:42.269Z,4.85
2023-09-08T11:52:09.841Z,4.43
2023-09-08T11:54:48.545Z,4.40
2023-09-08T11:57:23.663Z,4.03
2023-09-08T11:59:51.693Z,4.10
2023-09-08T12:02:19.239Z,4.13
2023-09-08T12:04:46.773Z,4.65
2023-09-08T12:07:18.078Z,5.07
2023-09-08T12:09:46.312Z,4.38
2023-09-08T12:12:14.083Z,5.18
2023-09-08T12:14:47.572Z,4.20
2023-09-08T12:17:18.633Z,5.10
2023-09-08T12:19:45.982Z,4.43
2023-09-08T12:22:18.182Z,4.97
2023-09-08T12:24:58.479Z,5.32
2023-09-08T12:27:26.411Z,4.63
2023-09-08T12:29:58.267Z,4.60
2023-09-08T12:32:26.982Z,4.32
2023-09-08T12:34:54.317Z,4.38
2023-09-08T12:37:28.788Z,4.88
2023-09-08T12:39:56.146Z,3.83
2023-09-08T12:42:29.819Z,4.97
2023-09-08T12:44:58.807Z,5.15
2023-09-08T12:47:26.326Z,4.45
2023-09-08T12:49:53.575Z,4.05
2023-09-08T12:52:21.020Z,4.90
2023-09-08T12:54:48.226Z,4.97
2023-09-08T12:57:15.721Z,5.20
2023-09-08T12:59:42.956Z,3.65
2023-09-08T13:02:10.571Z,4.47
2023-09-08T13:04:37.719Z,4.30
2023-09-08T13:07:05.422Z,4.20
2023-09-08T13:09:32.890Z,4.00
2023-09-08T13:12:01.496Z,4.43
2023-09-08T13:14:28.699Z,3.90
2023-09-08T13:16:56.302Z,4.28
2023-09-08T13:19:23.571Z,4.20
2023-09-08T13:21:51.027Z,4.20
2023-09-08T13:24:18.230Z,4.10
2023-09-08T13:26:45.629Z,3.80
2023-09-08T13:29:12.962Z,3.80
2023-09-08T13:31:40.655Z,4.43
2023-09-08T13:34:07.992Z,3.95
2023-09-08T13:36:35.434Z,4.03
2023-09-08T13:39:03.854Z,3.80
2023-09-08T13:41:47.053Z,4.15
2023-09-08T13:44:14.491Z,3.80
2023-09-08T13:46:42.061Z,5.78
2023-09-08T13:49:10.302Z,5.25
2023-09-08T13:51:38.925Z,3.75
2023-09-08T13:54:08.467Z,3.47
2023-09-08T13:56:36.417Z,3.55
2023-09-08T13:59:04.893Z,3.53
2023-09-08T14:01:40.039Z,4.20
2023-09-08T14:04:10.818Z,3.72
2023-09-08T14:06:41.245Z,5.20
2023-09-08T14:14:28.589Z,3.58
2023-09-08T14:16:56.088Z,3.30
2023-09-08T14:19:23.329Z,4.20
2023-09-08T14:21:50.927Z,3.40
2023-09-08T14:24:18.233Z,3.70
2023-09-08T14:26:46.294Z,4.15
2023-09-08T14:29:13.580Z,3.88
2023-09-08T14:31:41.074Z,3.72
2023-09-08T14:34:08.303Z,4.35
2023-09-08T14:36:35.745Z,4.18
2023-09-08T14:39:03.005Z,4.20
2023-09-08T14:41:33.237Z,3.85
2023-09-08T14:44:00.608Z,3.97
2023-09-08T14:46:28.146Z,3.97
2023-09-08T14:48:56.320Z,3.63
2023-09-08T14:51:23.812Z,3.95
2023-09-08T14:53:51.195Z,4.32
2023-09-08T14:56:18.802Z,4.43
2023-09-08T14:58:46.164Z,3.60
2023-09-08T15:01:15.243Z,4.25
2023-09-08T15:03:42.832Z,3.65
2023-09-08T15:06:10.477Z,3.70
2023-09-08T15:08:37.761Z,3.95
2023-09-08T15:11:05.317Z,3.55
2023-09-08T15:13:32.684Z,3.53
2023-09-08T15:16:00.870Z,4.10
2023-09-08T15:18:28.499Z,4.47
2023-09-08T15:20:57.054Z,3.80
2023-09-08T15:23:26.964Z,3.60
2023-09-08T15:25:58.942Z,3.33
2023-09-08T15:28:26.446Z,4.35
2023-09-08T15:30:55.609Z,3.47
2023-09-08T15:33:26.148Z,3.90
2023-09-08T15:35:55.799Z,3.33
2023-09-08T15:38:23.865Z,3.80
2023-09-08T15:41:10.287Z,3.47
2023-09-08T15:43:39.137Z,3.70
2023-09-08T15:46:08.195Z,3.60
2023-09-08T15:48:36.630Z,4.05
2023-09-08T15:51:06.471Z,3.03
2023-09-08T15:53:33.842Z,3.72
2023-09-08T15:56:01.681Z,3.80
2023-09-08T15:58:29.133Z,3.70
2023-09-08T16:00:56.935Z,3.80
2023-09-08T16:03:24.608Z,3.97
2023-09-08T16:05:52.315Z,3.85
2023-09-08T16:08:19.531Z,3.75
2023-09-08T16:10:49.070Z,4.28
2023-09-08T16:13:16.563Z,4.20
2023-09-08T16:15:44.894Z,3.30
2023-09-08T16:18:12.292Z,3.95
2023-09-08T16:20:40.533Z,4.10
2023-09-08T16:23:08.663Z,3.85
2023-09-08T16:25:36.442Z,3.30
2023-09-08T16:28:04.006Z,3.30
2023-09-08T16:30:31.730Z,3.70
2023-09-08T16:32:58.937Z,4.32
2023-09-08T16:35:27.312Z,4.25
2023-09-08T16:37:54.809Z,4.70
2023-09-08T16:40:23.842Z,4.00
2023-09-08T16:42:51.098Z,6.00
2023-09-08T16:45:18.936Z,4.47
2023-09-08T16:47:46.224Z,4.70
2023-09-08T16:50:13.742Z,5.00
2023-09-08T16:52:40.951Z,4.97
2023-09-08T16:55:15.350Z,5.72
2023-09-08T16:57:42.786Z,5.95
2023-09-08T17:00:11.095Z,5.05
2023-09-08T17:02:38.893Z,6.15
2023-09-08T17:05:07.116Z,5.57
2023-09-08T17:07:35.188Z,5.63
2023-09-08T17:10:06.865Z,5.80
2023-09-08T17:12:34.251Z,5.80
2023-09-08T17:15:02.054Z,5.63
2023-09-08T17:17:32.254Z,6.30
2023-09-08T17:20:00.256Z,5.15
2023-09-08T17:22:27.617Z,5.53
2023-09-08T17:24:55.132Z,5.55
2023-09-08T17:27:22.362Z,5.00
2023-09-08T17:29:49.905Z,6.18
2023-09-08T17:32:17.195Z,5.25
2023-09-08T17:34:44.695Z,5.80
2023-09-08T17:37:11.815Z,5.90
2023-09-08T17:39:39.453Z,6.35
2023-09-08T17:42:06.809Z,6.72
2023-09-08T17:44:34.371Z,6.80
2023-09-08T17:47:04.905Z,6.75
2023-09-08T17:49:32.804Z,6.80
2023-09-08T17:52:01.622Z,6.07
2023-09-08T17:54:30.530Z,7.22
2023-09-08T17:56:59.957Z,8.77
2023-09-08T17:59:27.695Z,6.93
2023-09-08T18:01:55.685Z,6.38
2023-09-08T18:04:23.523Z,7.70
2023-09-08T18:06:50.933Z,6.93
2023-09-08T18:09:18.948Z,8.38
2023-09-08T18:11:46.357Z,8.63
2023-09-08T18:14:14.115Z,8.02
2023-09-08T18:16:41.468Z,7.25
2023-09-08T18:19:09.321Z,8.15
2023-09-08T18:21:37.526Z,7.68
2023-09-08T18:24:05.306Z,8.25
2023-09-08T18:26:32.659Z,8.80
2023-09-08T18:29:00.318Z,8.65
2023-09-08T18:31:30.248Z,8.93
2023-09-08T18:33:59.358Z,10.07
2023-09-08T18:36:28.849Z,9.00
2023-09-08T18:38:56.305Z,9.02
2023-09-08T18:41:23.586Z,9.30
2023-09-08T18:43:51.049Z,10.50
2023-09-08T18:46:18.861Z,11.02
2023-09-08T18:48:46.647Z,9.40
2023-09-08T18:51:14.279Z,12.48
2023-09-08T18:53:42.008Z,10.55
2023-09-08T18:56:09.260Z,8.25
2023-09-08T18:58:39.712Z,10.45
2023-09-08T19:01:08.194Z,10.98
2023-09-08T19:03:36.097Z,10.25
2023-09-08T19:06:04.696Z,11.32
2023-09-08T19:08:33.212Z,12.95
2023-09-08T19:11:01.307Z,11.95
2023-09-08T19:13:28.869Z,12.98
2023-09-08T19:15:56.349Z,17.50
2023-09-08T19:18:23.956Z,22.30
2023-09-08T19:20:51.288Z,20.92
2023-09-08T19:23:18.765Z,22.65
2023-09-08T19:25:46.105Z,20.83
2023-09-08T19:28:13.823Z,20.50
2023-09-08T19:30:48.110Z,21.13
2023-09-08T19:33:16.128Z,39.08
2023-09-08T19:35:43.459Z,23.13
2023-09-08T19:38:11.178Z,21.05
2023-09-08T19:40:38.466Z,26.08
2023-09-08T19:43:06.072Z,23.30
2023-09-08T19:45:33.456Z,23.90
2023-09-08T19:48:01.134Z,22.90
2023-09-08T19:50:28.480Z,20.25
2023-09-08T19:52:56.051Z,20.35
2023-09-08T19:55:23.457Z,21.30
2023-09-08T19:57:51.203Z,20.27
2023-09-08T20:00:18.641Z,27.17
2023-09-08T20:02:46.255Z,26.17
2023-09-08T20:05:13.706Z,25.45
2023-09-08T20:07:41.308Z,21.90
2023-09-08T20:10:10.540Z,25.38
2023-09-08T20:12:39.607Z,27.83
2023-09-08T20:15:07.435Z,24.52
2023-09-08T20:17:35.168Z,24.52
2023-09-08T20:20:02.590Z,23.77
2023-09-08T20:22:30.079Z,24.20
2023-09-08T20:24:57.302Z,23.65
2023-09-08T20:27:24.795Z,23.48
2023-09-08T20:29:53.762Z,24.10
2023-09-08T20:32:21.207Z,23.90
2023-09-08T20:34:49.513Z,24.30
2023-09-08T20:37:16.991Z,27.15
2023-09-08T20:39:44.160Z,21.35
2023-09-08T20:42:12.739Z,22.95
2023-09-08T20:44:41.020Z,22.95
2023-09-08T20:47:08.512Z,25.98
2023-09-08T20:49:35.724Z,22.98
2023-09-08T20:52:03.663Z,22.55
2023-09-08T20:54:32.467Z,21.48
2023-09-08T20:56:59.932Z,22.38
2023-09-08T20:59:29.693Z,22.42
2023-09-08T21:01:57.500Z,19.77
2023-09-08T21:04:24.774Z,21.50
2023-09-08T21:06:53.106Z,21.50
2023-09-08T21:09:20.956Z,23.40
2023-09-08T21:11:49.499Z,22.63
2023-09-08T21:14:16.637Z,24.30
2023-09-08T21:16:44.191Z,23.70
2023-09-08T21:19:11.366Z,22.70
2023-09-08T21:21:38.924Z,23.85
2023-09-08T21:24:06.393Z,23.55
2023-09-08T21:26:33.865Z,22.42
2023-09-08T21:29:01.098Z,23.30
2023-09-08T21:31:28.587Z,20.75
2023-09-08T21:33:55.871Z,22.45
2023-09-08T21:36:23.409Z,22.23
2023-09-08T21:38:50.656Z,21.27
2023-09-08T21:41:18.094Z,20.58
2023-09-08T21:43:45.356Z,19.90
2023-09-08T21:46:12.858Z,20.70
2023-09-08T21:48:40.703Z,20.77
2023-09-08T21:51:09.910Z,20.00
2023-09-08T21:53:37.629Z,19.25
2023-09-08T21:56:05.084Z,21.10
2023-09-08T21:58:32.329Z,18.85
2023-09-08T22:00:59.955Z,20.88
2023-09-08T22:03:27.311Z,17.48
2023-09-08T22:05:54.959Z,18.25
2023-09-08T22:08:22.354Z,18.35
2023-09-08T22:10:49.985Z,18.85
2023-09-08T22:13:17.210Z,21.65
2023-09-08T22:15:44.772Z,18.77
2023-09-08T22:18:12.352Z,19.83
2023-09-08T22:20:41.191Z,18.33
2023-09-08T22:23:09.563Z,18.13
2023-09-08T22:25:37.967Z,16.67
2023-09-08T22:28:05.337Z,18.90
2023-09-08T22:30:32.818Z,19.48
2023-09-08T22:33:00.076Z,18.92
2023-09-08T22:35:27.626Z,20.00
2023-09-08T22:37:54.803Z,17.95
2023-09-08T22:40:22.392Z,18.73
2023-09-08T22:42:51.674Z,17.77
2023-09-08T22:45:19.254Z,20.48
2023-09-08T22:47:46.574Z,16.77
2023-09-08T22:50:14.091Z,17.85
2023-09-08T22:52:41.946Z,17.42
2023-09-08T22:55:23.437Z,16.02
2023-09-08T22:57:53.757Z,16.33
2023-09-08T23:00:22.350Z,18.50
2023-09-08T23:02:49.953Z,15.55
2023-09-08T23:05:17.718Z,16.65
2023-09-08T23:07:45.415Z,18.20
2023-09-08T23:10:13.055Z,16.83
2023-09-08T23:12:40.313Z,15.85
2023-09-08T23:15:09.165Z,15.80
2023-09-08T23:17:36.527Z,17.15
2023-09-08T23:20:22.867Z,15.77
2023-09-08T23:22:51.055Z,15.48
2023-09-08T23:25:18.614Z,16.45
2023-09-08T23:27:45.748Z,15.77
2023-09-08T23:30:14.104Z,16.63
2023-09-08T23:32:44.221Z,18.52
2023-09-08T23:35:13.209Z,17.95
2023-09-08T23:37:40.632Z,17.75
2023-09-08T23:40:08.825Z,16.70
2023-09-08T23:42:35.991Z,17.02
2023-09-08T23:45:06.172Z,15.70
2023-09-08T23:47:33.412Z,18.48
2023-09-08T23:50:04.524Z,17.30
2023-09-08T23:52:31.718Z,16.83
2023-09-08T23:54:59.271Z,16.23
2023-09-08T23:57:26.478Z,19.42
2023-09-08T23:59:54.166Z,20.25
